Sneeuw/IJzel/Bevriezing van: 24-01-2019 02:00 tot: 25-01-2019 12:00 waarschuwing voor: Sneeuw/IJzel/Bevriezing niveau: Geel info button

METAR rapporten vliegvelden

   
LEMG - Malaga
Gewijzigd: 24-01-2019 02:00
Gedeeltelijk bewolkt  
Gedeeltelijk bewolkt  
   Wind: WNW 20.4 km/h
Wind: WNW 20.4 km/h
Temperatuur: 16°C
Dauwpunt: 8°C
Vochtigheid: 59%
Barometer: 1012 hPa
Bewolking: Gedeeltelijk bewolkt
Zicht: meer dan 10 km
Bewolking: Gedeeltelijk bewolkt 4500 ft
LEMG 240100Z 29011KT 260V320 9999 SCT045 16/08 Q1012 NOSIG
LEAL - Alicante
Gewijzigd: 24-01-2019 02:00
Gedeeltelijk bewolkt  
Gedeeltelijk bewolkt  
   Wind: Westen 24.1 km/h
Wind: Westen 24.1 km/h
Temperatuur: 17°C
Dauwpunt: 4°C
Vochtigheid: 42%
Barometer: 1003 hPa
Bewolking: Gedeeltelijk bewolkt
Zicht: meer dan 10 km
Bewolking: Gedeeltelijk bewolkt 6500 ft
LEAL 240100Z 28013KT 9999 SCT065 17/04 Q1003 NOSIG
LEBB - Bilbao
Gewijzigd: 24-01-2019 02:00
  
  
   Wind: Noorden 18.5 km/h
Wind: Noorden 18.5 km/h
Zicht: 6 km
LEBB 240100Z AUTO 36010KT 340V050 6000 2300 RA SCT010/// BKN019/// BKN024/// 09/08 Q1011
GCTS - Tenerife
Gewijzigd: 24-01-2019 02:00
Gedeeltelijk bewolkt  
Gedeeltelijk bewolkt  
   Wind: NNO 13 km/h
Wind: NNO 13 km/h
Temperatuur: 17°C
Dauwpunt: 8°C
Vochtigheid: 56%
Barometer: 1022 hPa
Bewolking: Gedeeltelijk bewolkt
Zicht: meer dan 10 km
Bewolking: Licht bewolkt 4000 ft,
Gedeeltelijk bewolkt 4700 ft
GCTS 240100Z 03007KT 9999 FEW040 SCT047 17/08 Q1022 NOSIG
EIDW - Dublin
Gewijzigd: 24-01-2019 02:00
Lichte (mot)regen, Nevel, Grotendeels bewolkt  
Lichte (mot)regen, Nevel, Grotendeels bewolkt  
   Wind: WZW 9.3 km/h
Wind: WZW 9.3 km/h
Temperatuur: 4°C
Voelt als: 2°C
Dauwpunt: 4°C
Vochtigheid: 100%
Barometer: 1008 hPa
Bewolking: Grotendeels bewolkt
Zicht: 4 km
Bewolking: Grotendeels bewolkt 300 ft,
Grotendeels bewolkt 1000 ft
EIDW 240100Z 25005KT 4000 -DZ BR BKN003 BKN010 04/04 Q1008 BECMG BKN008
LPFR - Albufeira
Gewijzigd: 24-01-2019 02:00
Grotendeels bewolkt  
Grotendeels bewolkt  
   Wind: WNW 22.2 km/h
Wind: WNW 22.2 km/h
Temperatuur: 14°C
Dauwpunt: 11°C
Vochtigheid: 82%
Barometer: 1018 hPa
Bewolking: Grotendeels bewolkt
Zicht: meer dan 10 km
Bewolking: Gedeeltelijk bewolkt 3000 ft,
Grotendeels bewolkt 3500 ft
LPFR 240100Z 29012KT 9999 SCT030 BKN035 14/11 Q1018

Script ontwikkeld door  Saratoga-weather.org Aangepast voor de template door  Weerstation Leuven

U vindt ons ook hier:

Het Weer Aktueel

European Weather Network

WeatherCloud

Weather Underground

Benelux Weer Netwerk

WeatherlinkIP

Apparatuur in gebruik:

Weerstation
Davis VP2

Weerprogramma
consoleWD

Weercomputer
Raspberry

Gesponsord door
Stef van Bakel koeltechniek

Davis VP2

consoleWD

Raspberry

Stef van Bakel koeltechniek